• Join FlightAware (Why Join?)
  • Login
  • US Flag 
01:06AM EST


 

Airport Tracker/Info


-or-


 

Live Flight TrackerFlight Track Log ✈ UAL1426 ✈ 12-Jul-2013 ✈ KIAH - MMMD / MID

Flight Track Log - Related Links

Times and Time Zones

All times are in EDT time to prevent confusion due to time zone crossing. See the UAL1426 flight status page for this flight to view local times or setup timezone preferences in your user account.

Time Position Orientation Groundspeed Altitude Reporting Facility
EDT Latitude Longitude Course Direction KTS MPH feet Rate Location/Type
08:30PM 29.9572 -95.3392 151° Southeast 179 206 900  Level Houston Center
08:31PM 29.9233 -95.2928 130° Southeast 226 260 2,300 1,800 Climbing Houston Center
08:32PM 29.9061 -95.2653 126° Southeast 217 250 3,700 1,020 Climbing Houston Center
08:33PM 29.8589 -95.1994 130° Southeast 257 296 4,000 960 Climbing Houston Center
08:34PM 29.7975 -95.1189 131° Southeast 274 315 5,700 2,280 Climbing Houston Center
08:35PM 29.4835 -95.0112 150° Southeast  Level FlightAware Approximate
08:35PM 29.7425 -95.0536 134° Southeast 278 320 8,800  Level Houston Center
08:36PM 29.3827 -94.9475 151° Southeast  Level FlightAware Approximate
08:36PM 29.6647 -95.0167 158° South 297 342 11,500  Level Houston Center
08:37PM 29.5711 -94.9814 162° South 349 402 13,300 1,620 Climbing Houston Center
08:38PM 29.4681 -94.9428 162° South 381 438 14,900 1,740 Climbing Houston Center
08:39PM 29.3575 -94.9006 162° South 410 472 17,000 1,980 Climbing Houston Center
08:40PM 29.2456 -94.8533 160° South 424 488 19,000 1,800 Climbing Houston Center
08:41PM 29.1422 -94.7811 149° Southeast 432 497 20,700 1,560 Climbing Houston Center
08:42PM 29.0336 -94.7078 149° Southeast 447 514 22,300 1,500 Climbing Houston Center
08:43PM 28.8992 -94.6167 149° Southeast 464 534 23,900 1,380 Climbing Houston Center
08:44PM 28.7839 -94.5389 149° Southeast 476 548 25,200 1,260 Climbing Houston Center
08:45PM 28.6667 -94.4594 149° Southeast 486 559 26,500 1,200 Climbing Houston Center
08:46PM 28.5464 -94.3800 150° Southeast 495 570 27,700 1,200 Climbing Houston Center
08:47PM 28.4269 -94.3006 150° Southeast 498 573 29,000 1,320 Climbing Houston Center
08:48PM 28.3075 -94.2197 149° Southeast 498 573 30,500 1,260 Climbing Houston Center
08:49PM 28.1878 -94.1400 150° Southeast 498 573 31,600 1,260 Climbing Houston Center
08:50PM 28.0586 -94.0231 141° Southeast 494 568 33,100 1,320 Climbing Houston Center
08:51PM 27.9544 -93.9233 140° Southeast 492 566 34,400 900 Climbing Houston Center
08:52PM 27.8508 -93.8239 140° Southeast 489 563 35,000 240 Climbing Houston Center
08:53PM 27.7456 -93.7258 140° Southeast 488 562 35,000  Level Houston Center
08:54PM 27.6419 -93.6267 140° Southeast 488 562 35,000  Level Houston Center
08:55PM 27.5389 -93.5286 140° Southeast 486 559 35,000  Level Houston Center
08:57PM 27.4347 -93.4289 140° Southeast 490 564 35,000  Level Houston Center
08:58PM 27.3100 -93.3139 141° Southeast 485 558 35,000  Level Houston Center
08:59PM 27.2056 -93.2169 140° Southeast 486 559 35,000  Level Houston Center
09:00PM 27.1008 -93.1194 140° Southeast 488 562 35,000  Level Houston Center
09:02PM 26.9265 -92.9534 140° Southeast  Level FlightAware Approximate
09:09PM 26.2171 -92.4499 149° Southeast  Level FlightAware Approximate
09:10PM 26.1133 -92.3821 150° Southeast  Level FlightAware Approximate
09:11PM 26.0094 -92.3145 150° Southeast  Level FlightAware Approximate
09:12PM 25.9056 -92.2469 150° Southeast  Level FlightAware Approximate
09:13PM 25.8011 -92.1806 152° Southeast  Level FlightAware Approximate
09:14PM 25.6952 -92.1171 152° Southeast  Level FlightAware Approximate
09:15PM 25.5913 -92.0500 149° Southeast  Level FlightAware Approximate
09:16PM 25.4881 -91.9815 149° Southeast  Level FlightAware Approximate
09:17PM 25.3848 -91.9132 149° Southeast  Level FlightAware Approximate
09:18PM 25.2826 -91.8457 149° Southeast  Level FlightAware Approximate
09:19PM 25.1805 -91.7784 149° Southeast  Level FlightAware Approximate
09:20PM 25.0783 -91.7112 149° Southeast  Level FlightAware Approximate
09:21PM 24.9760 -91.6441 149° Southeast  Level FlightAware Approximate
09:22PM 24.8738 -91.5771 149° Southeast  Level FlightAware Approximate
09:23PM 24.7715 -91.5102 149° Southeast  Level FlightAware Approximate
09:24PM 24.6692 -91.4435 149° Southeast  Level FlightAware Approximate
09:25PM 24.5668 -91.3768 149° Southeast  Level FlightAware Approximate
09:26PM 24.4623 -91.3148 156° South  Level FlightAware Approximate
09:27PM 24.3537 -91.2614 156° South  Level FlightAware Approximate
09:28PM 24.2452 -91.2081 156° South  Level FlightAware Approximate
09:29PM 24.1366 -91.1548 156° South  Level FlightAware Approximate
09:30PM 24.0280 -91.1017 156° South  Level FlightAware Approximate
09:31PM 23.9193 -91.0487 156° South  Level FlightAware Approximate
09:32PM 23.8107 -90.9957 156° South  Level FlightAware Approximate
09:33PM 23.7020 -90.9430 157° South  Level FlightAware Approximate
09:34PM 23.5928 -90.8915 157° South  Level FlightAware Approximate
09:35PM 23.4836 -90.8400 157° South  Level FlightAware Approximate
09:36PM 23.3744 -90.7886 157° South  Level FlightAware Approximate
09:37PM 23.2652 -90.7373 157° South  Level FlightAware Approximate
09:38PM 23.1559 -90.6861 157° South  Level FlightAware Approximate
09:39PM 23.0471 -90.6338 156° South  Level FlightAware Approximate
09:40PM 22.9384 -90.5816 156° South  Level FlightAware Approximate
09:41PM 22.8296 -90.5294 156° South  Level FlightAware Approximate
09:42PM 22.7208 -90.4771 155° Southeast  Level FlightAware Approximate
09:43PM 22.6128 -90.4231 155° Southeast  Level FlightAware Approximate
09:44PM 22.5043 -90.3704 158° South  Level FlightAware Approximate
09:45PM 22.3943 -90.3215 158° South  Level FlightAware Approximate
09:46PM 22.2850 -90.2707 157° South  Level FlightAware Approximate
09:47PM 22.1758 -90.2198 157° South  Level FlightAware Approximate
09:48PM 22.0666 -90.1689 157° South  Level FlightAware Approximate
09:49PM 21.9574 -90.1181 157° South  Level FlightAware Approximate
09:50PM 21.8481 -90.0674 157° South  Level FlightAware Approximate
09:51PM 21.7389 -90.0167 157° South  Level FlightAware Approximate
09:52PM 21.6288 -89.9682 160° South  Level FlightAware Approximate
09:53PM 21.5173 -89.9236 160° South  Level FlightAware Approximate
09:54PM 21.4090 -89.8711 155° Southeast  Level FlightAware Approximate
09:55PM 21.3011 -89.8172 155° Southeast  Level FlightAware Approximate
09:56PM 21.1912 -89.7683 157° South  Level FlightAware Approximate
09:57PM 21.0840 -89.7173 137° Southeast  Level FlightAware Approximate
09:58PM 20.9736 -89.6701 155° Southeast  Level FlightAware Approximate
09:59PM 20.9370 -89.6577 180° South  Level Estimated
10:00PM 20.9370 -89.6577 180° South  Level Estimated
10:01PM 20.9370 -89.6577 180° South  Level Estimated